createdAt,value
2019-03-16T00:01:18.798Z,11.50
2019-03-16T00:03:46.852Z,11.73
2019-03-16T00:06:15.130Z,12.07
2019-03-16T00:08:43.511Z,10.57
2019-03-16T00:11:11.720Z,12.10
2019-03-16T00:13:39.658Z,10.40
2019-03-16T00:16:07.613Z,13.50
2019-03-16T00:18:35.526Z,15.70
2019-03-16T00:21:03.395Z,13.30
2019-03-16T00:23:31.356Z,15.13
2019-03-16T00:25:59.308Z,13.90
2019-03-16T00:28:27.258Z,11.43
2019-03-16T00:30:55.115Z,12.67
2019-03-16T00:33:23.038Z,12.17
2019-03-16T00:35:50.864Z,12.23
2019-03-16T00:38:18.859Z,12.60
2019-03-16T00:40:46.775Z,13.77
2019-03-16T00:43:16.148Z,9.37
2019-03-16T00:45:44.414Z,12.03
2019-03-16T00:48:14.090Z,10.27
2019-03-16T00:50:41.944Z,10.83
2019-03-16T00:53:09.739Z,12.70
2019-03-16T00:55:37.631Z,11.20
2019-03-16T00:58:05.494Z,9.23
2019-03-16T01:00:33.525Z,14.10
2019-03-16T01:03:01.449Z,15.53
2019-03-16T01:05:29.551Z,15.43
2019-03-16T01:07:57.435Z,12.87
2019-03-16T01:10:25.499Z,12.90
2019-03-16T01:12:53.412Z,12.70
2019-03-16T01:15:22.002Z,13.60
2019-03-16T01:17:50.307Z,12.40
2019-03-16T01:20:18.263Z,13.53
2019-03-16T01:22:46.085Z,14.40
2019-03-16T01:25:13.956Z,12.87
2019-03-16T01:27:41.869Z,11.30
2019-03-16T01:30:12.205Z,10.20
2019-03-16T01:32:41.118Z,10.07
2019-03-16T01:35:09.571Z,14.57
2019-03-16T01:37:37.773Z,15.40
2019-03-16T01:40:05.932Z,17.90
2019-03-16T01:42:33.834Z,15.80
2019-03-16T01:45:01.666Z,10.60
2019-03-16T01:47:29.826Z,15.40
2019-03-16T01:49:58.218Z,14.00
2019-03-16T01:52:26.175Z,10.37
2019-03-16T01:54:54.147Z,9.80
2019-03-16T01:57:22.155Z,10.23
2019-03-16T01:59:50.076Z,14.53
2019-03-16T02:02:17.943Z,14.90
2019-03-16T02:04:45.824Z,13.00
2019-03-16T02:07:13.650Z,12.57
2019-03-16T02:09:41.582Z,14.03
2019-03-16T02:12:09.436Z,15.13
2019-03-16T02:14:37.949Z,12.90
2019-03-16T02:17:05.837Z,11.53
2019-03-16T02:19:35.998Z,11.80
2019-03-16T02:22:03.872Z,14.20
2019-03-16T02:24:31.867Z,11.27
2019-03-16T02:26:59.875Z,10.13
2019-03-16T02:29:27.884Z,10.40
2019-03-16T02:31:55.819Z,10.17
2019-03-16T02:34:29.562Z,11.27
2019-03-16T02:36:57.604Z,11.13
2019-03-16T02:39:25.524Z,9.03
2019-03-16T02:41:53.396Z,11.83
2019-03-16T02:44:21.280Z,8.90
2019-03-16T02:46:49.175Z,10.87
2019-03-16T02:49:17.389Z,11.37
2019-03-16T02:51:45.565Z,10.17
2019-03-16T02:54:13.424Z,10.83
2019-03-16T02:56:41.357Z,12.97
2019-03-16T02:59:09.315Z,11.97
2019-03-16T03:01:37.269Z,11.60
2019-03-16T03:04:05.117Z,9.67
2019-03-16T03:06:33.069Z,9.20
2019-03-16T03:09:00.988Z,8.90
2019-03-16T03:11:29.234Z,7.83
2019-03-16T03:13:57.514Z,6.57
2019-03-16T03:16:25.488Z,13.93
2019-03-16T03:18:53.417Z,12.47
2019-03-16T03:21:21.363Z,12.87
2019-03-16T03:23:49.226Z,9.37
2019-03-16T03:26:17.154Z,12.60
2019-03-16T03:28:45.444Z,12.20
2019-03-16T03:31:13.260Z,10.10
2019-03-16T03:33:58.723Z,13.20
2019-03-16T03:36:10.845Z,13.10
2019-03-16T03:38:38.777Z,11.07
2019-03-16T03:41:06.668Z,12.43
2019-03-16T03:43:34.641Z,11.83
2019-03-16T03:46:02.838Z,13.43
2019-03-16T03:48:31.061Z,15.53
2019-03-16T03:50:59.040Z,10.40
2019-03-16T03:53:26.931Z,12.57
2019-03-16T03:55:55.015Z,9.37
2019-03-16T03:58:22.943Z,11.80
2019-03-16T04:00:50.829Z,12.97
2019-03-16T04:03:18.811Z,14.77
2019-03-16T04:05:46.772Z,13.40
2019-03-16T04:08:16.452Z,11.93
2019-03-16T04:10:44.347Z,12.03
2019-03-16T04:13:12.276Z,9.73
2019-03-16T04:15:40.329Z,14.40
2019-03-16T04:18:08.302Z,14.47
2019-03-16T04:20:36.225Z,13.47
2019-03-16T04:23:04.186Z,12.23
2019-03-16T04:25:32.997Z,13.73
2019-03-16T04:28:00.827Z,12.70
2019-03-16T04:30:28.922Z,13.80
2019-03-16T04:32:56.783Z,10.97
2019-03-16T04:35:24.798Z,12.33
2019-03-16T04:37:52.604Z,12.97
2019-03-16T04:40:20.508Z,11.53
2019-03-16T04:42:48.407Z,14.20
2019-03-16T04:45:16.364Z,10.93
2019-03-16T04:47:44.282Z,13.80
2019-03-16T04:50:12.298Z,11.97
2019-03-16T04:52:40.250Z,12.87
2019-03-16T04:55:08.559Z,14.43
2019-03-16T04:57:36.482Z,14.60
2019-03-16T05:00:04.975Z,13.00
2019-03-16T05:02:32.882Z,10.43
2019-03-16T05:05:00.811Z,15.63
2019-03-16T05:07:28.720Z,13.63
2019-03-16T05:09:56.999Z,11.30
2019-03-16T05:12:25.096Z,12.37
2019-03-16T05:14:52.983Z,10.37
2019-03-16T05:17:20.931Z,10.50
2019-03-16T05:19:48.834Z,12.30
2019-03-16T05:22:16.718Z,14.37
2019-03-16T05:24:44.742Z,12.37
2019-03-16T05:27:12.626Z,15.90
2019-03-16T05:29:40.521Z,14.00
2019-03-16T05:32:08.487Z,15.17
2019-03-16T05:34:36.427Z,17.10
2019-03-16T05:37:04.383Z,12.63
2019-03-16T05:39:32.299Z,12.57
2019-03-16T05:42:00.235Z,15.87
2019-03-16T05:44:28.123Z,11.57
2019-03-16T05:46:56.131Z,14.07
2019-03-16T05:49:24.043Z,13.37
2019-03-16T05:51:51.916Z,18.20
2019-03-16T05:54:19.846Z,15.03
2019-03-16T05:56:47.758Z,16.10
2019-03-16T05:59:15.702Z,11.33
2019-03-16T06:01:43.631Z,14.30
2019-03-16T06:04:11.535Z,14.87
2019-03-16T06:06:39.981Z,14.90
2019-03-16T06:09:07.851Z,13.60
2019-03-16T06:11:35.814Z,13.83
2019-03-16T06:14:03.650Z,12.43
2019-03-16T06:16:31.658Z,11.97
2019-03-16T06:18:59.702Z,11.60
2019-03-16T06:21:27.676Z,14.93
2019-03-16T06:23:55.594Z,13.33
2019-03-16T06:26:23.482Z,12.67
2019-03-16T06:28:51.406Z,15.67
2019-03-16T06:31:19.294Z,12.80
2019-03-16T06:33:47.281Z,14.33
2019-03-16T06:36:15.216Z,13.57
2019-03-16T06:38:43.088Z,11.90
2019-03-16T06:41:10.971Z,12.63
2019-03-16T06:43:39.098Z,14.63
2019-03-16T06:46:07.487Z,12.67
2019-03-16T06:48:35.404Z,15.80
2019-03-16T06:51:03.274Z,13.40
2019-03-16T06:53:31.154Z,15.97
2019-03-16T06:55:58.982Z,20.23
2019-03-16T06:58:26.866Z,20.23
2019-03-16T07:01:10.508Z,16.97
2019-03-16T07:03:52.484Z,28.77
2019-03-16T07:06:34.956Z,231.33
2019-03-16T07:09:17.663Z,441.97
2019-03-16T07:12:01.279Z,425.07
2019-03-16T07:15:00.373Z,282.87
2019-03-16T07:17:42.484Z,84.27
2019-03-16T07:20:24.148Z,43.57
2019-03-16T07:23:06.101Z,33.30
2019-03-16T07:25:48.608Z,31.53
2019-03-16T07:28:32.579Z,24.13
2019-03-16T07:31:14.885Z,21.73
2019-03-16T07:33:56.410Z,19.17
2019-03-16T07:36:39.102Z,37.27
2019-03-16T07:39:21.487Z,43.57
2019-03-16T07:42:03.095Z,46.27
2019-03-16T07:44:46.274Z,52.33
2019-03-16T07:47:29.329Z,58.27
2019-03-16T07:50:24.886Z,57.50
2019-03-16T07:54:08.401Z,30.97
2019-03-16T08:01:43.794Z,46.20
2019-03-16T08:04:45.556Z,86.53
2019-03-16T08:07:12.255Z,155.77
2019-03-16T08:09:40.118Z,66.57
2019-03-16T08:12:08.070Z,70.33
2019-03-16T08:15:18.517Z,52.60
2019-03-16T08:17:58.522Z,51.20
2019-03-16T08:20:41.962Z,46.73
2019-03-16T08:23:10.458Z,32.07
2019-03-16T08:25:38.414Z,26.87
2019-03-16T08:28:06.458Z,24.67
2019-03-16T08:30:34.319Z,24.90
2019-03-16T08:33:02.254Z,17.20
2019-03-16T08:35:30.404Z,18.87
2019-03-16T08:37:58.700Z,23.37
2019-03-16T08:40:26.710Z,20.97
2019-03-16T08:42:54.572Z,22.97
2019-03-16T08:45:22.494Z,24.17
2019-03-16T08:47:50.519Z,20.97
2019-03-16T08:50:18.447Z,21.50
2019-03-16T08:52:46.709Z,20.03
2019-03-16T08:55:14.658Z,22.57
2019-03-16T08:57:43.999Z,20.57
2019-03-16T09:00:28.901Z,21.40
2019-03-16T09:03:13.637Z,20.37
2019-03-16T09:05:41.781Z,23.70
2019-03-16T09:08:09.761Z,26.27
2019-03-16T09:10:37.644Z,18.47
2019-03-16T09:13:05.690Z,20.93
2019-03-16T09:15:33.702Z,19.57
2019-03-16T09:18:01.889Z,21.40
2019-03-16T09:20:30.283Z,26.87
2019-03-16T09:22:58.325Z,22.17
2019-03-16T09:25:26.388Z,23.60
2019-03-16T09:27:54.310Z,28.73
2019-03-16T09:30:22.187Z,30.87
2019-03-16T09:32:50.070Z,32.30
2019-03-16T09:35:18.014Z,29.40
2019-03-16T09:37:45.882Z,30.83
2019-03-16T09:40:13.929Z,24.77
2019-03-16T09:42:41.948Z,21.63
2019-03-16T09:45:18.627Z,26.60
2019-03-16T09:49:09.240Z,23.97
2019-03-16T09:51:34.983Z,24.43
2019-03-16T09:54:03.086Z,21.67
2019-03-16T09:56:30.991Z,22.07
2019-03-16T09:58:58.802Z,18.57
2019-03-16T10:01:41.137Z,14.73
2019-03-16T10:04:22.597Z,21.00
2019-03-16T10:06:50.768Z,15.97
2019-03-16T10:09:18.711Z,14.40
2019-03-16T10:11:46.604Z,10.93
2019-03-16T10:14:14.555Z,11.77
2019-03-16T10:16:42.415Z,12.67
2019-03-16T10:19:35.524Z,13.20
2019-03-16T10:24:59.045Z,12.13
2019-03-16T10:27:26.994Z,13.97
2019-03-16T10:29:54.973Z,13.60
2019-03-16T10:32:22.830Z,16.93
2019-03-16T10:34:50.746Z,16.50
2019-03-16T10:37:32.322Z,18.83
2019-03-16T10:40:14.725Z,16.97
2019-03-16T10:42:55.022Z,15.80
2019-03-16T10:45:57.648Z,18.43
2019-03-16T10:48:40.278Z,15.88
2019-03-16T10:51:59.903Z,13.98
2019-03-16T10:58:56.473Z,18.17
2019-03-16T11:05:55.329Z,15.88
2019-03-16T11:09:26.627Z,16.73
2019-03-16T11:16:14.361Z,15.93
2019-03-16T11:23:35.689Z,15.25
2019-03-16T11:27:08.771Z,14.78
2019-03-16T11:30:33.576Z,14.33
2019-03-16T11:33:01.463Z,14.47
2019-03-16T11:35:29.409Z,14.15
2019-03-16T11:37:57.383Z,16.35
2019-03-16T11:40:25.254Z,12.98
2019-03-16T11:42:53.208Z,16.15
2019-03-16T11:45:35.586Z,15.50
2019-03-16T11:48:19.813Z,16.75
2019-03-16T11:51:03.089Z,13.38
2019-03-16T11:53:30.867Z,11.57
2019-03-16T11:56:52.055Z,13.60
2019-03-16T12:04:46.615Z,14.18
2019-03-16T12:08:15.941Z,11.85
2019-03-16T12:10:41.382Z,10.55
2019-03-16T12:13:17.241Z,11.03
2019-03-16T12:15:56.397Z,12.33
2019-03-16T12:18:24.439Z,13.40
2019-03-16T12:20:52.351Z,13.03
2019-03-16T12:23:34.399Z,10.48
2019-03-16T12:27:04.488Z,12.20
2019-03-16T12:29:33.895Z,12.95
2019-03-16T12:31:58.545Z,10.93
2019-03-16T12:34:26.419Z,14.00
2019-03-16T12:36:54.336Z,13.68
2019-03-16T12:39:22.284Z,11.25
2019-03-16T12:41:50.106Z,13.88
2019-03-16T12:44:18.022Z,12.13
2019-03-16T12:46:45.948Z,17.07
2019-03-16T12:49:13.877Z,8.15
2019-03-16T12:51:55.890Z,7.72
2019-03-16T12:54:37.782Z,8.73
2019-03-16T12:57:19.872Z,7.40
2019-03-16T13:00:00.508Z,7.65
2019-03-16T13:03:12.068Z,8.85
2019-03-16T13:10:33.192Z,8.58
2019-03-16T13:14:05.836Z,7.55
2019-03-16T13:17:58.063Z,10.08
2019-03-16T13:21:16.426Z,6.20
2019-03-16T13:24:56.613Z,8.10
2019-03-16T13:28:43.982Z,8.55
2019-03-16T13:31:47.832Z,8.98
2019-03-16T13:35:03.271Z,7.55
2019-03-16T13:38:15.385Z,6.33
2019-03-16T13:41:42.725Z,10.00
2019-03-16T13:53:39.095Z,8.05
2019-03-16T13:56:43.917Z,8.23
2019-03-16T14:00:13.822Z,9.75
2019-03-16T14:06:42.250Z,9.23
2019-03-16T14:09:38.121Z,10.53
2019-03-16T14:13:01.811Z,9.38
2019-03-16T14:16:22.536Z,9.33
2019-03-16T14:19:26.764Z,7.85
2019-03-16T14:21:54.028Z,8.68
2019-03-16T14:24:22.628Z,7.65
2019-03-16T14:26:57.072Z,8.78
2019-03-16T14:29:54.192Z,8.80
2019-03-16T14:32:22.146Z,9.13
2019-03-16T14:34:50.414Z,7.08
2019-03-16T14:37:31.926Z,10.95
2019-03-16T14:40:14.297Z,8.35
2019-03-16T14:42:55.823Z,6.28
2019-03-16T14:46:08.212Z,12.33
2019-03-16T14:48:34.563Z,7.33
2019-03-16T14:51:02.492Z,10.45
2019-03-16T14:53:44.143Z,6.65
2019-03-16T14:57:22.538Z,6.17
2019-03-16T15:04:08.454Z,7.50
2019-03-16T15:06:49.990Z,7.75
2019-03-16T15:09:18.059Z,8.23
2019-03-16T15:11:45.957Z,7.03
2019-03-16T15:14:21.515Z,8.60
2019-03-16T15:16:43.560Z,7.03
2019-03-16T15:19:15.546Z,10.35
2019-03-16T15:21:47.815Z,6.75
2019-03-16T15:24:19.347Z,9.30
2019-03-16T15:26:51.458Z,11.63
2019-03-16T15:29:19.483Z,7.87
2019-03-16T15:31:47.387Z,6.65
2019-03-16T15:34:15.238Z,8.10
2019-03-16T15:36:43.126Z,12.15
2019-03-16T15:39:11.077Z,9.33
2019-03-16T15:41:38.994Z,9.13
2019-03-16T15:44:06.876Z,8.78
2019-03-16T15:46:34.822Z,10.08
2019-03-16T15:49:06.509Z,6.70
2019-03-16T15:51:38.619Z,9.18
2019-03-16T15:54:06.686Z,8.70
2019-03-16T15:56:34.603Z,9.23
2019-03-16T15:59:02.562Z,9.70
2019-03-16T16:01:30.400Z,8.30
2019-03-16T16:03:58.254Z,9.48
2019-03-16T16:06:26.271Z,8.87
2019-03-16T16:08:54.203Z,7.90
2019-03-16T16:11:28.052Z,10.27
2019-03-16T16:13:59.687Z,10.27
2019-03-16T16:16:57.873Z,9.17
2019-03-16T16:19:30.074Z,13.50
2019-03-16T16:21:58.062Z,10.50
2019-03-16T16:24:26.065Z,10.77
2019-03-16T16:26:54.044Z,8.93
2019-03-16T16:29:21.878Z,11.87
2019-03-16T16:31:49.853Z,10.17
2019-03-16T16:34:17.712Z,10.23
2019-03-16T16:36:45.596Z,9.47
2019-03-16T16:39:14.530Z,13.87
2019-03-16T16:41:42.695Z,13.30
2019-03-16T16:44:10.581Z,9.67
2019-03-16T16:46:38.440Z,8.70
2019-03-16T16:49:06.468Z,11.13
2019-03-16T16:51:34.326Z,9.83
2019-03-16T16:54:02.189Z,11.03
2019-03-16T16:56:30.103Z,11.07
2019-03-16T16:58:58.046Z,14.07
2019-03-16T17:01:29.457Z,16.80
2019-03-16T17:03:56.138Z,16.87
2019-03-16T17:06:24.293Z,15.90
2019-03-16T17:08:52.182Z,17.43
2019-03-16T17:11:28.259Z,18.40
2019-03-16T17:13:56.207Z,18.90
2019-03-16T17:16:54.070Z,17.03
2019-03-16T17:19:22.171Z,17.37
2019-03-16T17:21:50.129Z,21.93
2019-03-16T17:24:18.055Z,22.00
2019-03-16T17:26:49.652Z,35.77
2019-03-16T17:29:21.560Z,33.63
2019-03-16T17:31:49.577Z,21.10
2019-03-16T17:34:17.389Z,23.23
2019-03-16T17:36:45.293Z,21.10
2019-03-16T17:39:13.232Z,38.43
2019-03-16T17:41:41.202Z,23.50
2019-03-16T17:44:09.039Z,40.27
2019-03-16T17:46:37.029Z,29.20
2019-03-16T17:49:04.873Z,20.93
2019-03-16T17:51:32.724Z,24.40
2019-03-16T17:54:00.707Z,21.10
2019-03-16T17:56:28.614Z,17.57
2019-03-16T17:58:56.559Z,33.83
2019-03-16T18:01:24.387Z,21.30
2019-03-16T18:03:52.338Z,24.83
2019-03-16T18:06:20.347Z,24.77
2019-03-16T18:08:48.268Z,25.70
2019-03-16T18:11:22.232Z,22.17
2019-03-16T18:13:49.996Z,18.10
2019-03-16T18:17:02.758Z,22.87
2019-03-16T18:19:30.796Z,19.70
2019-03-16T18:21:58.804Z,22.47
2019-03-16T18:24:26.678Z,25.43
2019-03-16T18:26:54.567Z,24.37
2019-03-16T18:29:22.414Z,23.70
2019-03-16T18:31:50.287Z,25.20
2019-03-16T18:34:18.265Z,27.80
2019-03-16T18:36:46.074Z,27.03
2019-03-16T18:39:13.931Z,25.00
2019-03-16T18:41:41.747Z,23.27
2019-03-16T18:44:10.059Z,21.50
2019-03-16T18:46:38.044Z,21.53
2019-03-16T18:49:06.010Z,19.83
2019-03-16T18:51:33.879Z,22.20
2019-03-16T18:54:01.892Z,20.80
2019-03-16T18:56:29.724Z,25.43
2019-03-16T18:58:57.653Z,23.23
2019-03-16T19:01:26.483Z,23.93
2019-03-16T19:03:54.486Z,20.47
2019-03-16T19:06:22.335Z,21.27
2019-03-16T19:08:50.410Z,19.67
2019-03-16T19:11:21.848Z,20.77
2019-03-16T19:13:49.748Z,21.87
2019-03-16T19:17:02.927Z,22.10
2019-03-16T19:19:28.920Z,19.67
2019-03-16T19:21:56.809Z,22.20
2019-03-16T19:24:24.784Z,32.47
2019-03-16T19:26:52.738Z,34.40
2019-03-16T19:29:20.695Z,42.03
2019-03-16T19:31:48.754Z,41.93
2019-03-16T19:34:16.656Z,72.43
2019-03-16T19:36:44.549Z,58.57
2019-03-16T19:39:12.657Z,32.90
2019-03-16T19:41:41.774Z,29.20
2019-03-16T19:44:09.747Z,28.63
2019-03-16T19:46:37.783Z,26.30
2019-03-16T19:49:07.175Z,23.40
2019-03-16T19:51:35.043Z,23.13
2019-03-16T19:54:02.883Z,28.60
2019-03-16T19:56:30.710Z,31.43
2019-03-16T19:59:00.786Z,24.57
2019-03-16T20:01:28.156Z,20.37
2019-03-16T20:03:56.077Z,18.10
2019-03-16T20:06:26.095Z,23.47
2019-03-16T20:08:53.722Z,16.70
2019-03-16T20:11:22.227Z,21.20
2019-03-16T20:13:50.106Z,22.80
2019-03-16T20:17:00.402Z,25.80
2019-03-16T20:19:26.662Z,21.40
2019-03-16T20:21:54.674Z,22.43
2019-03-16T20:24:22.516Z,21.07
2019-03-16T20:26:50.489Z,19.67
2019-03-16T20:29:18.378Z,21.47
2019-03-16T20:31:47.341Z,20.27
2019-03-16T20:34:15.216Z,22.33
2019-03-16T20:36:43.119Z,20.40
2019-03-16T20:39:11.030Z,22.20
2019-03-16T20:41:38.967Z,20.60
2019-03-16T20:44:06.965Z,22.73
2019-03-16T20:46:35.045Z,25.87
2019-03-16T20:49:03.100Z,21.50
2019-03-16T20:51:30.990Z,22.83
2019-03-16T20:53:58.790Z,19.73
2019-03-16T20:56:26.646Z,21.47
2019-03-16T20:58:54.508Z,20.57
2019-03-16T21:01:22.426Z,15.53
2019-03-16T21:03:50.421Z,16.60
2019-03-16T21:06:18.558Z,16.03
2019-03-16T21:08:46.515Z,16.80
2019-03-16T21:11:14.448Z,16.37
2019-03-16T21:13:42.280Z,19.87
2019-03-16T21:16:55.393Z,19.70
2019-03-16T21:19:21.374Z,18.57
2019-03-16T21:21:49.329Z,18.90
2019-03-16T21:24:17.287Z,15.87
2019-03-16T21:27:29.650Z,20.43
2019-03-16T21:29:55.566Z,25.27
2019-03-16T21:32:23.472Z,20.00
2019-03-16T21:34:51.412Z,22.10
2019-03-16T21:37:19.307Z,21.20
2019-03-16T21:39:47.283Z,21.97
2019-03-16T21:42:15.178Z,20.23
2019-03-16T21:44:43.116Z,23.97
2019-03-16T21:47:11.014Z,22.33
2019-03-16T21:49:38.875Z,20.40
2019-03-16T21:52:06.738Z,23.30
2019-03-16T21:54:34.633Z,17.33
2019-03-16T21:57:02.541Z,19.30
2019-03-16T21:59:30.432Z,22.90
2019-03-16T22:01:58.363Z,26.87
2019-03-16T22:04:26.420Z,23.57
2019-03-16T22:06:54.411Z,19.03
2019-03-16T22:09:22.245Z,22.00
2019-03-16T22:11:50.215Z,18.03
2019-03-16T22:14:31.761Z,18.93
2019-03-16T22:17:09.667Z,18.93
2019-03-16T22:19:37.626Z,16.23
2019-03-16T22:22:05.510Z,20.27
2019-03-16T22:24:33.482Z,18.27
2019-03-16T22:27:01.530Z,16.33
2019-03-16T22:29:29.427Z,20.53
2019-03-16T22:31:57.748Z,18.00
2019-03-16T22:34:25.887Z,18.87
2019-03-16T22:36:53.675Z,21.47
2019-03-16T22:39:21.595Z,17.63
2019-03-16T22:41:49.631Z,20.37
2019-03-16T22:44:17.554Z,17.37
2019-03-16T22:46:45.427Z,19.97
2019-03-16T22:49:13.275Z,19.20
2019-03-16T22:51:41.277Z,19.60
2019-03-16T22:54:09.226Z,16.80
2019-03-16T22:56:37.165Z,18.33
2019-03-16T22:59:05.304Z,15.83
2019-03-16T23:01:33.327Z,18.53
2019-03-16T23:04:06.962Z,19.17
2019-03-16T23:06:30.854Z,18.30
2019-03-16T23:08:58.811Z,19.97
2019-03-16T23:11:28.113Z,23.57
2019-03-16T23:13:56.074Z,17.03
2019-03-16T23:16:23.978Z,17.67
2019-03-16T23:18:53.162Z,22.73
2019-03-16T23:21:21.031Z,21.17
2019-03-16T23:23:49.050Z,23.07
2019-03-16T23:26:16.991Z,20.13
2019-03-16T23:28:44.914Z,29.10
2019-03-16T23:31:13.077Z,27.47
2019-03-16T23:33:41.114Z,25.50
2019-03-16T23:36:09.082Z,23.73
2019-03-16T23:38:37.166Z,24.97
2019-03-16T23:41:05.026Z,26.63
2019-03-16T23:43:32.986Z,24.57
2019-03-16T23:46:00.884Z,21.47
2019-03-16T23:48:28.767Z,28.63
2019-03-16T23:50:56.682Z,24.53
2019-03-16T23:53:24.663Z,19.40
2019-03-16T23:55:52.520Z,21.43
2019-03-16T23:58:20.443Z,23.70
